createdAt,value
2017-07-23T00:00:12.234Z,7.93
2017-07-23T00:02:41.152Z,7.97
2017-07-23T00:05:09.341Z,7.80
2017-07-23T00:07:37.867Z,8.43
2017-07-23T00:10:06.822Z,8.80
2017-07-23T00:12:34.969Z,8.87
2017-07-23T00:15:03.310Z,7.87
2017-07-23T00:17:31.429Z,8.70
2017-07-23T00:19:59.740Z,8.63
2017-07-23T00:22:27.996Z,8.03
2017-07-23T00:24:56.143Z,9.03
2017-07-23T00:27:24.290Z,9.17
2017-07-23T00:29:52.395Z,9.07
2017-07-23T00:32:20.568Z,10.13
2017-07-23T00:34:48.701Z,9.00
2017-07-23T00:37:16.811Z,8.80
2017-07-23T00:39:44.978Z,8.90
2017-07-23T00:42:13.100Z,9.90
2017-07-23T00:44:41.235Z,9.33
2017-07-23T00:47:09.376Z,8.70
2017-07-23T00:49:37.530Z,10.33
2017-07-23T00:52:05.647Z,10.90
2017-07-23T00:54:33.825Z,10.30
2017-07-23T00:57:02.705Z,9.20
2017-07-23T00:59:30.881Z,9.63
2017-07-23T01:01:59.830Z,9.20
2017-07-23T01:04:28.893Z,10.90
2017-07-23T01:06:57.097Z,10.07
2017-07-23T01:09:25.242Z,10.07
2017-07-23T01:11:53.615Z,10.47
2017-07-23T01:14:21.741Z,10.40
2017-07-23T01:16:49.879Z,10.20
2017-07-23T01:19:18.041Z,11.77
2017-07-23T01:21:46.188Z,11.03
2017-07-23T01:24:14.343Z,11.00
2017-07-23T01:26:42.492Z,12.27
2017-07-23T01:29:10.636Z,11.20
2017-07-23T01:31:38.796Z,10.07
2017-07-23T01:34:07.533Z,10.73
2017-07-23T01:36:36.037Z,12.40
2017-07-23T01:39:04.164Z,10.93
2017-07-23T01:41:33.361Z,11.23
2017-07-23T01:44:01.505Z,11.07
2017-07-23T01:46:29.661Z,11.33
2017-07-23T01:48:57.851Z,11.40
2017-07-23T01:51:26.033Z,11.80
2017-07-23T01:53:54.354Z,12.07
2017-07-23T01:56:22.535Z,12.53
2017-07-23T01:58:50.663Z,11.20
2017-07-23T02:01:18.817Z,12.40
2017-07-23T02:03:46.972Z,11.87
2017-07-23T02:06:15.110Z,11.57
2017-07-23T02:08:43.268Z,12.13
2017-07-23T02:11:11.404Z,12.90
2017-07-23T02:13:39.535Z,13.80
2017-07-23T02:16:07.685Z,11.57
2017-07-23T02:18:36.351Z,12.57
2017-07-23T02:21:04.845Z,14.03
2017-07-23T02:23:32.980Z,14.10
2017-07-23T02:26:01.769Z,14.07
2017-07-23T02:28:29.941Z,16.10
2017-07-23T02:30:58.078Z,14.50
2017-07-23T02:33:26.342Z,16.03
2017-07-23T02:35:54.485Z,16.70
2017-07-23T02:38:23.411Z,21.57
2017-07-23T02:40:51.543Z,22.57
2017-07-23T02:43:19.672Z,23.63
2017-07-23T02:45:47.868Z,24.47
2017-07-23T02:48:16.734Z,24.50
2017-07-23T02:50:45.039Z,25.00
2017-07-23T02:53:13.176Z,27.27
2017-07-23T02:55:41.358Z,28.47
2017-07-23T02:58:09.486Z,30.13
2017-07-23T03:00:37.603Z,29.13
2017-07-23T03:03:05.759Z,27.70
2017-07-23T03:05:34.638Z,27.50
2017-07-23T03:08:02.809Z,28.10
2017-07-23T03:10:30.958Z,28.97
2017-07-23T03:12:59.879Z,29.20
2017-07-23T03:15:28.015Z,30.10
2017-07-23T03:17:56.300Z,29.27
2017-07-23T03:20:24.456Z,28.87
2017-07-23T03:22:52.603Z,30.20
2017-07-23T03:25:20.766Z,29.27
2017-07-23T03:27:48.900Z,31.80
2017-07-23T03:30:17.093Z,29.03
2017-07-23T03:32:45.262Z,30.37
2017-07-23T03:35:13.400Z,28.47
2017-07-23T03:37:41.669Z,32.33
2017-07-23T03:40:09.826Z,30.63
2017-07-23T03:42:38.745Z,29.83
2017-07-23T03:45:08.235Z,31.80
2017-07-23T03:47:36.410Z,31.40
2017-07-23T03:50:04.642Z,31.90
2017-07-23T03:52:32.776Z,32.73
2017-07-23T03:55:00.927Z,33.23
2017-07-23T03:57:29.056Z,33.20
2017-07-23T03:59:57.212Z,34.17
2017-07-23T04:02:25.355Z,32.97
2017-07-23T04:04:53.513Z,32.47
2017-07-23T04:07:21.651Z,32.57
2017-07-23T04:09:49.816Z,32.80
2017-07-23T04:12:17.968Z,29.10
2017-07-23T04:14:46.664Z,29.60
2017-07-23T04:17:14.822Z,30.80
2017-07-23T04:19:42.944Z,30.53
2017-07-23T04:22:11.152Z,27.87
2017-07-23T04:24:39.293Z,28.50
2017-07-23T04:27:07.465Z,32.23
2017-07-23T04:29:35.737Z,29.00
2017-07-23T04:32:03.907Z,26.43
2017-07-23T04:34:32.065Z,27.03
2017-07-23T04:37:00.191Z,29.60
2017-07-23T04:39:28.649Z,30.70
2017-07-23T04:41:56.885Z,30.20
2017-07-23T04:44:25.020Z,30.97
2017-07-23T04:46:53.191Z,33.67
2017-07-23T04:49:21.369Z,31.73
2017-07-23T04:51:49.538Z,30.80
2017-07-23T04:54:17.692Z,30.97
2017-07-23T04:56:46.039Z,30.23
2017-07-23T04:59:14.376Z,29.53
2017-07-23T05:01:42.488Z,30.23
2017-07-23T05:04:10.647Z,31.13
2017-07-23T05:06:39.286Z,29.90
2017-07-23T05:09:07.523Z,31.60
2017-07-23T05:11:35.654Z,27.27
2017-07-23T05:14:03.830Z,27.17
2017-07-23T05:16:31.965Z,26.03
2017-07-23T05:19:00.108Z,25.97
2017-07-23T05:21:28.251Z,27.47
2017-07-23T05:23:56.382Z,26.20
2017-07-23T05:26:24.529Z,28.17
2017-07-23T05:28:52.665Z,27.53
2017-07-23T05:31:20.867Z,26.33
2017-07-23T05:33:49.006Z,29.10
2017-07-23T05:36:17.908Z,28.70
2017-07-23T05:38:46.878Z,28.10
2017-07-23T05:41:14.997Z,26.33
2017-07-23T05:43:43.157Z,27.60
2017-07-23T05:46:11.288Z,27.47
2017-07-23T05:48:39.473Z,27.73
2017-07-23T05:51:08.099Z,28.33
2017-07-23T05:53:36.236Z,27.67
2017-07-23T05:56:04.395Z,29.80
2017-07-23T05:58:32.622Z,30.03
2017-07-23T06:01:01.552Z,27.00
2017-07-23T06:03:29.674Z,27.30
2017-07-23T06:05:57.858Z,27.40
2017-07-23T06:08:26.002Z,29.30
2017-07-23T06:10:54.129Z,28.43
2017-07-23T06:13:23.918Z,28.70
2017-07-23T06:15:52.062Z,27.07
2017-07-23T06:18:20.270Z,26.77
2017-07-23T06:20:48.436Z,29.03
2017-07-23T06:23:17.170Z,27.17
2017-07-23T06:25:45.318Z,29.07
2017-07-23T06:28:13.470Z,29.70
2017-07-23T06:30:41.685Z,24.67
2017-07-23T06:33:10.776Z,26.90
2017-07-23T06:35:38.913Z,27.97
2017-07-23T06:38:07.127Z,28.07
2017-07-23T06:40:35.294Z,28.60
2017-07-23T06:43:03.554Z,25.93
2017-07-23T06:45:31.723Z,26.73
2017-07-23T06:47:59.918Z,28.40
2017-07-23T06:50:28.484Z,28.23
2017-07-23T06:52:56.705Z,28.03
2017-07-23T06:55:24.837Z,31.30
2017-07-23T06:57:52.982Z,28.93
2017-07-23T07:00:21.525Z,26.67
2017-07-23T07:02:49.682Z,27.53
2017-07-23T07:05:17.849Z,28.97
2017-07-23T07:07:46.043Z,27.53
2017-07-23T07:10:14.180Z,25.57
2017-07-23T07:12:42.329Z,26.07
2017-07-23T07:15:10.603Z,26.13
2017-07-23T07:17:38.788Z,27.97
2017-07-23T07:20:07.054Z,27.40
2017-07-23T07:22:35.183Z,27.20
2017-07-23T07:25:03.321Z,26.40
2017-07-23T07:27:31.445Z,28.60
2017-07-23T07:29:59.600Z,28.03
2017-07-23T07:32:27.750Z,28.90
2017-07-23T07:34:56.296Z,26.87
2017-07-23T07:37:24.427Z,27.93
2017-07-23T07:39:52.618Z,28.30
2017-07-23T07:42:20.770Z,27.63
2017-07-23T07:44:48.921Z,27.80
2017-07-23T07:47:17.038Z,29.27
2017-07-23T07:49:45.210Z,28.83
2017-07-23T07:52:13.343Z,23.97
2017-07-23T07:54:42.049Z,26.70
2017-07-23T07:57:10.707Z,25.00
2017-07-23T07:59:38.990Z,26.30
2017-07-23T08:02:07.184Z,25.93
2017-07-23T08:04:36.079Z,25.00
2017-07-23T08:07:04.767Z,24.80
2017-07-23T08:09:32.924Z,24.20
2017-07-23T08:12:01.082Z,23.63
2017-07-23T08:14:29.211Z,22.83
2017-07-23T08:16:57.583Z,25.13
2017-07-23T08:19:25.742Z,22.33
2017-07-23T08:21:53.892Z,21.60
2017-07-23T08:24:22.360Z,21.73
2017-07-23T08:26:50.627Z,21.70
2017-07-23T08:29:18.788Z,21.40
2017-07-23T08:31:47.124Z,21.50
2017-07-23T08:34:16.121Z,21.80
2017-07-23T08:36:44.970Z,22.57
2017-07-23T08:39:13.141Z,20.30
2017-07-23T08:41:42.258Z,20.33
2017-07-23T08:44:10.452Z,18.60
2017-07-23T08:46:38.638Z,17.93
2017-07-23T08:49:06.777Z,17.90
2017-07-23T08:51:35.529Z,14.40
2017-07-23T08:54:03.664Z,14.10
2017-07-23T08:56:31.897Z,13.30
2017-07-23T08:59:00.787Z,12.17
2017-07-23T09:01:29.253Z,12.30
2017-07-23T09:03:57.396Z,12.20
2017-07-23T09:06:25.529Z,12.13
2017-07-23T09:08:53.711Z,10.57
2017-07-23T09:11:22.589Z,9.90
2017-07-23T09:13:50.748Z,9.20
2017-07-23T09:16:18.928Z,9.33
2017-07-23T09:18:47.125Z,9.10
2017-07-23T09:21:15.266Z,8.03
2017-07-23T09:23:43.401Z,7.27
2017-07-23T09:26:11.641Z,7.40
2017-07-23T09:28:39.784Z,7.03
2017-07-23T09:31:07.940Z,7.60
2017-07-23T09:33:36.330Z,7.63
2017-07-23T09:36:04.502Z,8.10
2017-07-23T09:38:33.358Z,7.33
2017-07-23T09:41:01.468Z,7.60
2017-07-23T09:43:29.612Z,7.33
2017-07-23T09:45:57.743Z,7.83
2017-07-23T09:48:26.063Z,7.67
2017-07-23T09:50:54.227Z,8.20
2017-07-23T09:53:22.413Z,7.67
2017-07-23T09:55:51.037Z,6.60
2017-07-23T09:58:19.170Z,6.10
2017-07-23T10:00:47.321Z,6.77
2017-07-23T10:03:15.451Z,5.93
2017-07-23T10:05:44.363Z,6.40
2017-07-23T10:08:12.474Z,6.37
2017-07-23T10:10:40.601Z,6.30
2017-07-23T10:13:08.730Z,6.63
2017-07-23T10:15:36.871Z,6.80
2017-07-23T10:18:05.067Z,6.60
2017-07-23T10:20:35.506Z,6.67
2017-07-23T10:23:03.673Z,6.57
2017-07-23T10:25:31.806Z,7.40
2017-07-23T10:28:00.738Z,6.73
2017-07-23T10:30:28.894Z,6.30
2017-07-23T10:32:57.330Z,7.10
2017-07-23T10:35:25.605Z,7.43
2017-07-23T10:37:54.509Z,7.60
2017-07-23T10:40:22.656Z,6.97
2017-07-23T10:42:50.862Z,7.20
2017-07-23T10:45:19.183Z,7.93
2017-07-23T10:47:47.342Z,7.70
2017-07-23T10:50:15.870Z,7.50
2017-07-23T10:52:44.020Z,8.20
2017-07-23T10:55:12.150Z,7.47
2017-07-23T10:57:40.330Z,7.50
2017-07-23T11:00:08.459Z,7.63
2017-07-23T11:02:37.091Z,7.93
2017-07-23T11:05:06.262Z,8.00
2017-07-23T11:07:34.517Z,7.30
2017-07-23T11:10:02.675Z,8.43
2017-07-23T11:12:30.819Z,8.53
2017-07-23T11:14:58.969Z,7.47
2017-07-23T11:17:27.133Z,8.10
2017-07-23T11:19:56.497Z,8.20
2017-07-23T11:22:27.828Z,8.40
2017-07-23T11:24:56.066Z,6.90
2017-07-23T11:27:24.657Z,6.37
2017-07-23T11:29:52.862Z,7.33
2017-07-23T11:32:21.043Z,7.40
2017-07-23T11:34:49.200Z,6.27
2017-07-23T11:37:18.148Z,6.83
2017-07-23T11:39:47.352Z,7.40
2017-07-23T11:42:15.658Z,6.40
2017-07-23T11:44:44.616Z,7.30
2017-07-23T11:47:12.742Z,7.00
2017-07-23T11:49:41.030Z,5.83
2017-07-23T11:52:09.383Z,6.70
2017-07-23T11:54:37.590Z,6.93
2017-07-23T11:57:05.734Z,6.80
2017-07-23T11:59:33.930Z,7.20
2017-07-23T12:02:02.092Z,6.37
2017-07-23T12:04:30.224Z,6.70
2017-07-23T12:06:58.454Z,5.90
2017-07-23T12:09:27.250Z,6.73
2017-07-23T12:11:55.521Z,6.63
2017-07-23T12:14:25.092Z,6.63
2017-07-23T12:16:53.291Z,6.80
2017-07-23T12:19:21.461Z,6.10
2017-07-23T12:21:50.381Z,6.43
2017-07-23T12:24:18.565Z,5.80
2017-07-23T12:26:47.477Z,5.90
2017-07-23T12:29:15.616Z,5.43
2017-07-23T12:31:43.751Z,5.17
2017-07-23T12:34:12.661Z,5.43
2017-07-23T12:36:41.547Z,5.70
2017-07-23T12:39:09.690Z,5.83
2017-07-23T12:41:37.857Z,5.33
2017-07-23T12:44:06.028Z,5.67
2017-07-23T12:46:34.239Z,5.40
2017-07-23T12:49:02.392Z,6.37
2017-07-23T12:51:30.562Z,5.20
2017-07-23T12:53:59.479Z,5.13
2017-07-23T12:56:27.697Z,5.57
2017-07-23T12:58:55.873Z,5.20
2017-07-23T13:01:24.015Z,5.20
2017-07-23T13:03:52.261Z,5.10
2017-07-23T13:06:20.420Z,5.30
2017-07-23T13:08:48.588Z,4.73
2017-07-23T13:11:17.051Z,5.27
2017-07-23T13:13:45.201Z,5.43
2017-07-23T13:16:13.520Z,5.27
2017-07-23T13:18:41.741Z,5.57
2017-07-23T13:21:09.890Z,5.93
2017-07-23T13:23:38.672Z,5.70
2017-07-23T13:26:06.835Z,4.60
2017-07-23T13:28:34.986Z,5.50
2017-07-23T13:31:03.107Z,5.57
2017-07-23T13:33:31.261Z,6.77
2017-07-23T13:35:59.396Z,7.53
2017-07-23T13:38:27.545Z,7.07
2017-07-23T13:40:55.695Z,4.90
2017-07-23T13:43:23.905Z,5.53
2017-07-23T13:45:52.073Z,5.20
2017-07-23T13:48:20.233Z,6.73
2017-07-23T13:50:48.548Z,6.33
2017-07-23T13:53:16.687Z,7.40
2017-07-23T13:55:44.825Z,6.70
2017-07-23T13:58:12.963Z,6.70
2017-07-23T14:00:41.125Z,8.30
2017-07-23T14:03:09.229Z,8.10
2017-07-23T14:05:37.378Z,7.90
2017-07-23T14:08:05.542Z,7.80
2017-07-23T14:10:33.694Z,8.27
2017-07-23T14:13:02.027Z,7.43
2017-07-23T14:15:30.161Z,6.30
2017-07-23T14:17:58.716Z,6.00
2017-07-23T14:20:26.830Z,4.97
2017-07-23T14:22:56.439Z,5.40
2017-07-23T14:25:24.565Z,4.37
2017-07-23T14:27:52.745Z,4.40
2017-07-23T14:30:21.682Z,4.63
2017-07-23T14:32:49.860Z,4.80
2017-07-23T14:35:18.710Z,4.70
2017-07-23T14:37:46.899Z,4.87
2017-07-23T14:40:15.551Z,4.47
2017-07-23T14:42:44.200Z,4.70
2017-07-23T14:45:12.319Z,4.30
2017-07-23T14:47:40.503Z,3.80
2017-07-23T14:50:08.644Z,4.63
2017-07-23T14:52:37.588Z,4.20
2017-07-23T14:55:06.630Z,4.47
2017-07-23T14:57:34.792Z,3.77
2017-07-23T15:00:02.935Z,4.23
2017-07-23T15:02:31.055Z,4.03
2017-07-23T15:04:59.188Z,3.63
2017-07-23T15:07:27.298Z,4.10
2017-07-23T15:09:55.462Z,3.47
2017-07-23T15:12:24.529Z,4.17
2017-07-23T15:14:53.470Z,3.57
2017-07-23T15:17:22.449Z,3.97
2017-07-23T15:19:50.582Z,3.93
2017-07-23T15:22:19.489Z,4.07
2017-07-23T15:24:47.694Z,4.70
2017-07-23T15:27:15.815Z,4.97
2017-07-23T15:29:44.437Z,5.23
2017-07-23T15:32:12.574Z,4.30
2017-07-23T15:34:41.492Z,4.70
2017-07-23T15:37:10.130Z,5.00
2017-07-23T15:39:38.263Z,4.20
2017-07-23T15:42:06.417Z,4.43
2017-07-23T15:44:34.682Z,4.60
2017-07-23T15:47:02.832Z,4.07
2017-07-23T15:49:30.984Z,5.00
2017-07-23T15:51:59.120Z,4.90
2017-07-23T15:54:27.261Z,4.97
2017-07-23T15:56:55.386Z,4.77
2017-07-23T15:59:23.566Z,5.23
2017-07-23T16:01:51.741Z,6.97
2017-07-23T16:04:19.878Z,5.20
2017-07-23T16:06:48.047Z,5.10
2017-07-23T16:09:16.176Z,4.40
2017-07-23T16:11:44.365Z,4.80
2017-07-23T16:14:12.474Z,5.00
2017-07-23T16:16:41.752Z,5.30
2017-07-23T16:19:09.899Z,4.97
2017-07-23T16:21:38.051Z,5.77
2017-07-23T16:24:06.269Z,4.87
2017-07-23T16:26:34.781Z,5.50
2017-07-23T16:29:02.964Z,5.90
2017-07-23T16:31:31.121Z,5.00
2017-07-23T16:33:59.223Z,5.93
2017-07-23T16:36:27.430Z,5.63
2017-07-23T16:38:55.561Z,5.97
2017-07-23T16:41:26.292Z,5.47
2017-07-23T16:43:54.471Z,5.90
2017-07-23T16:46:22.626Z,5.50
2017-07-23T16:48:50.954Z,5.83
2017-07-23T16:51:19.414Z,5.50
2017-07-23T16:53:47.532Z,6.00
2017-07-23T16:56:15.669Z,5.90
2017-07-23T16:58:43.971Z,6.53
2017-07-23T17:01:12.296Z,6.30
2017-07-23T17:03:40.472Z,6.47
2017-07-23T17:06:09.383Z,6.37
2017-07-23T17:08:37.528Z,6.17
2017-07-23T17:11:05.668Z,6.50
2017-07-23T17:13:33.889Z,6.60
2017-07-23T17:16:02.389Z,5.40
2017-07-23T17:18:32.260Z,4.20
2017-07-23T17:21:00.501Z,4.67
2017-07-23T17:23:28.667Z,5.27
2017-07-23T17:25:56.855Z,4.93
2017-07-23T17:28:24.991Z,4.13
2017-07-23T17:30:53.105Z,3.53
2017-07-23T17:33:21.629Z,3.83
2017-07-23T17:35:49.925Z,3.40
2017-07-23T17:38:18.067Z,3.67
2017-07-23T17:40:46.348Z,3.73
2017-07-23T17:43:14.494Z,3.90
2017-07-23T17:45:42.640Z,3.10
2017-07-23T17:48:10.809Z,3.00
2017-07-23T17:50:39.803Z,3.00
2017-07-23T17:53:07.949Z,2.80
2017-07-23T17:55:36.587Z,3.00
2017-07-23T17:58:04.859Z,2.90
2017-07-23T18:00:33.012Z,3.17
2017-07-23T18:03:01.518Z,3.27
2017-07-23T18:05:30.264Z,3.30
2017-07-23T18:07:58.431Z,2.40
2017-07-23T18:10:26.965Z,2.50
2017-07-23T18:12:55.116Z,3.10
2017-07-23T18:15:24.077Z,2.73
2017-07-23T18:17:52.215Z,3.00
2017-07-23T18:20:20.871Z,3.67
2017-07-23T18:22:49.880Z,5.60
2017-07-23T18:25:18.068Z,9.73
2017-07-23T18:27:46.230Z,5.80
2017-07-23T18:30:14.342Z,6.10
2017-07-23T18:32:42.541Z,3.60
2017-07-23T18:35:10.690Z,4.10
2017-07-23T18:37:38.830Z,3.40
2017-07-23T18:40:06.993Z,3.50
2017-07-23T18:42:35.131Z,6.00
2017-07-23T18:45:03.342Z,5.60
2017-07-23T18:47:31.534Z,4.93
2017-07-23T18:49:59.683Z,13.43
2017-07-23T18:52:27.849Z,4.40
2017-07-23T18:54:55.990Z,4.33
2017-07-23T18:57:24.198Z,8.10
2017-07-23T18:59:52.388Z,4.97
2017-07-23T19:02:21.331Z,5.47
2017-07-23T19:04:49.499Z,10.53
2017-07-23T19:07:17.662Z,6.73
2017-07-23T19:09:46.661Z,12.40
2017-07-23T19:12:14.816Z,14.57
2017-07-23T19:14:43.056Z,18.33
2017-07-23T19:17:12.055Z,14.30
2017-07-23T19:19:40.253Z,9.37
2017-07-23T19:22:08.463Z,7.50
2017-07-23T19:24:36.612Z,5.10
2017-07-23T19:27:04.727Z,6.00
2017-07-23T19:29:32.905Z,5.10
2017-07-23T19:32:01.074Z,5.83
2017-07-23T19:34:30.088Z,4.73
2017-07-23T19:36:58.294Z,5.30
2017-07-23T19:39:27.262Z,32.77
2017-07-23T19:41:55.429Z,56.70
2017-07-23T19:44:24.394Z,52.73
2017-07-23T19:46:52.643Z,20.93
2017-07-23T19:49:20.888Z,20.47
2017-07-23T19:51:49.093Z,41.97
2017-07-23T19:54:17.279Z,58.00
2017-07-23T19:56:45.462Z,28.47
2017-07-23T19:59:13.643Z,22.43
2017-07-23T20:01:41.773Z,18.40
2017-07-23T20:04:09.914Z,13.80
2017-07-23T20:06:38.087Z,8.90
2017-07-23T20:09:06.358Z,7.70
2017-07-23T20:11:34.695Z,7.07
2017-07-23T20:14:02.883Z,7.37
2017-07-23T20:16:31.014Z,7.17
2017-07-23T20:18:59.216Z,6.00
2017-07-23T20:21:27.358Z,7.27
2017-07-23T20:23:55.643Z,5.80
2017-07-23T20:26:23.817Z,9.43
2017-07-23T20:28:51.999Z,14.27
2017-07-23T20:31:20.912Z,13.50
2017-07-23T20:33:49.060Z,14.60
2017-07-23T20:36:17.232Z,21.90
2017-07-23T20:38:45.396Z,7.57
2017-07-23T20:41:13.590Z,27.73
2017-07-23T20:43:41.760Z,95.20
2017-07-23T20:46:09.947Z,54.00
2017-07-23T20:48:38.981Z,29.23
2017-07-23T20:51:07.118Z,16.40
2017-07-23T20:53:35.273Z,12.17
2017-07-23T20:56:03.413Z,11.40
2017-07-23T20:58:31.597Z,7.80
2017-07-23T21:00:59.740Z,7.10
2017-07-23T21:03:28.604Z,6.37
2017-07-23T21:05:56.777Z,6.00
2017-07-23T21:08:24.993Z,6.30
2017-07-23T21:10:53.157Z,7.13
2017-07-23T21:13:21.272Z,7.73
2017-07-23T21:15:49.418Z,6.90
2017-07-23T21:18:17.590Z,6.97
2017-07-23T21:20:45.729Z,6.17
2017-07-23T21:23:13.907Z,7.20
2017-07-23T21:25:42.135Z,6.90
2017-07-23T21:28:10.265Z,6.83
2017-07-23T21:30:38.626Z,6.60
2017-07-23T21:33:06.762Z,5.93
2017-07-23T21:35:35.382Z,5.90
2017-07-23T21:38:03.551Z,5.00
2017-07-23T21:40:31.684Z,5.43
2017-07-23T21:42:59.931Z,5.47
2017-07-23T21:45:28.099Z,4.90
2017-07-23T21:47:56.261Z,5.50
2017-07-23T21:50:24.377Z,55.53
2017-07-23T21:52:52.542Z,25.80
2017-07-23T21:55:20.708Z,7.20
2017-07-23T21:57:48.848Z,5.90
2017-07-23T22:00:17.188Z,6.17
2017-07-23T22:02:45.398Z,22.77
2017-07-23T22:05:13.523Z,21.87
2017-07-23T22:07:41.783Z,8.80
2017-07-23T22:10:09.898Z,9.30
2017-07-23T22:12:38.156Z,5.40
2017-07-23T22:15:06.266Z,6.40
2017-07-23T22:17:34.420Z,5.70
2017-07-23T22:20:02.596Z,6.30
2017-07-23T22:22:30.769Z,6.13
2017-07-23T22:24:58.917Z,5.07
2017-07-23T22:27:27.067Z,5.27
2017-07-23T22:29:55.978Z,6.40
2017-07-23T22:32:24.163Z,5.80
2017-07-23T22:34:52.314Z,6.33
2017-07-23T22:37:20.472Z,5.20
2017-07-23T22:39:48.598Z,6.03
2017-07-23T22:42:16.764Z,5.40
2017-07-23T22:44:44.904Z,6.23
2017-07-23T22:47:13.037Z,5.43
2017-07-23T22:49:41.211Z,6.10
2017-07-23T22:52:10.746Z,6.20
2017-07-23T22:54:39.655Z,6.70
2017-07-23T22:57:07.806Z,6.40
2017-07-23T22:59:35.961Z,6.47
2017-07-23T23:02:04.164Z,6.47
2017-07-23T23:04:32.298Z,6.77
2017-07-23T23:07:01.352Z,6.90
2017-07-23T23:09:29.475Z,7.07
2017-07-23T23:11:57.636Z,6.90
2017-07-23T23:14:25.786Z,8.43
2017-07-23T23:16:53.989Z,8.17
2017-07-23T23:19:22.169Z,9.10
2017-07-23T23:21:50.374Z,8.73
2017-07-23T23:24:18.584Z,8.70
2017-07-23T23:26:46.755Z,8.50
2017-07-23T23:29:14.969Z,8.10
2017-07-23T23:31:43.104Z,8.37
2017-07-23T23:34:11.226Z,8.60
2017-07-23T23:36:39.362Z,8.50
2017-07-23T23:39:07.625Z,9.20
2017-07-23T23:41:35.892Z,7.90
2017-07-23T23:44:04.049Z,7.93
2017-07-23T23:46:32.225Z,8.20
2017-07-23T23:49:00.432Z,7.90
2017-07-23T23:51:28.573Z,7.30
2017-07-23T23:53:56.769Z,7.93
2017-07-23T23:56:24.920Z,7.93
2017-07-23T23:58:53.046Z,8.20
